Time;durP1;ratioP1;P1;durP2;ratioP2;P2;SDS_P1;SDS_P2;PMS_P1;PMS_P2;Temp;Humidity;BMP_temperature;BMP_pressure;BME280_temperature;BME280_humidity;BME280_pressure;Samples;Min_cycle;Max_cycle;Signal;HPM_P1;HPM_P2
2022/11/28 00:00:57;;;;;;;6.70;6.00;;;5.40;99.90;;;5.28;70.32;95532.50;5025477;28;20858;-55
2022/11/28 00:03:24;;;;;;;6.80;6.00;;;5.40;99.90;;;5.28;70.02;95532.50;5025802;28;20456;-56
2022/11/28 00:05:52;;;;;;;9.83;5.97;;;5.40;99.90;;;5.25;69.92;95527.47;5025100;28;20464;-56
2022/11/28 00:08:19;;;;;;;7.87;6.10;;;5.40;99.90;;;5.26;70.42;95534.38;5025619;28;20460;-55
2022/11/28 00:10:46;;;;;;;8.33;6.13;;;5.30;99.90;;;5.27;70.07;95536.88;5025401;28;20485;-55
2022/11/28 00:13:15;;;;;;;7.20;5.77;;;5.40;99.90;;;5.27;69.57;95528.25;5025317;28;20510;-54
2022/11/28 00:15:42;;;;;;;7.57;6.03;;;5.40;99.90;;;5.24;70.07;95529.25;5025351;28;20465;-55
2022/11/28 00:18:10;;;;;;;5.93;5.20;;;5.30;99.90;;;5.18;69.96;95530.44;5025864;28;20650;-56
2022/11/28 00:20:37;;;;;;;8.97;6.67;;;5.30;99.90;;;5.20;70.21;95527.75;5024857;28;20558;-56
2022/11/28 00:23:04;;;;;;;7.80;6.70;;;5.30;99.90;;;5.23;70.41;95534.56;5025339;28;20453;-52
2022/11/28 00:25:32;;;;;;;9.00;6.23;;;5.30;99.90;;;5.21;69.91;95527.66;5024489;28;20500;-53
2022/11/28 00:27:59;;;;;;;7.33;6.03;;;5.30;99.90;;;5.18;69.20;95533.03;5024725;28;20953;-56
2022/11/28 00:30:27;;;;;;;8.60;5.70;;;5.30;99.90;;;5.15;69.74;95538.44;5024933;28;20995;-56
2022/11/28 00:32:55;;;;;;;7.97;5.20;;;5.20;99.90;;;5.13;69.46;95529.06;5025457;28;20518;-53
2022/11/28 00:35:22;;;;;;;6.50;5.20;;;5.20;99.90;;;5.10;69.61;95527.44;5024737;28;20927;-55
2022/11/28 00:37:49;;;;;;;5.77;5.17;;;5.20;99.90;;;5.08;69.88;95531.06;5025066;28;20453;-57
2022/11/28 00:40:17;;;;;;;8.37;5.07;;;5.20;99.90;;;5.05;69.60;95529.50;5024994;28;20465;-55
2022/11/28 00:42:44;;;;;;;5.70;5.13;;;5.10;99.90;;;5.03;70.18;95528.72;5025108;28;21070;-57
2022/11/28 00:45:11;;;;;;;7.07;5.57;;;5.10;99.90;;;5.02;69.93;95524.47;5024916;28;20570;-55
2022/11/28 00:47:40;;;;;;;7.13;5.50;;;5.10;99.90;;;5.02;69.66;95527.91;5024707;28;20504;-56
2022/11/28 00:50:09;;;;;;;7.00;5.47;;;5.10;99.90;;;4.98;69.51;95525.56;5024642;28;20472;-56
2022/11/28 00:52:36;;;;;;;8.17;6.17;;;5.10;99.90;;;4.95;69.90;95523.97;5025118;28;20459;-55
2022/11/28 00:55:04;;;;;;;9.10;6.30;;;5.00;99.90;;;4.96;69.64;95524.81;5025199;28;20485;-55
2022/11/28 00:57:31;;;;;;;6.00;5.00;;;5.10;99.90;;;4.92;69.75;95521.53;5024764;28;20448;-55
2022/11/28 00:59:58;;;;;;;7.30;5.57;;;5.00;99.90;;;4.89;69.85;95521.72;5024661;28;21076;-56
2022/11/28 01:02:25;;;;;;;7.27;5.50;;;5.00;99.90;;;4.85;70.23;95523.66;5024536;28;20526;-57
2022/11/28 01:04:54;;;;;;;7.17;6.17;;;4.90;99.90;;;4.82;70.24;95516.03;5021524;28;20500;-54
2022/11/28 01:07:21;;;;;;;6.67;5.97;;;4.90;99.90;;;4.82;70.23;95523.00;5025033;28;20954;-55
2022/11/28 01:09:48;;;;;;;10.73;6.00;;;4.90;99.90;;;4.81;70.38;95524.75;5024788;28;20472;-55
2022/11/28 01:12:16;;;;;;;7.93;6.50;;;4.90;99.90;;;4.85;70.60;95517.63;5024347;28;20459;-54
2022/11/28 01:14:43;;;;;;;8.97;5.63;;;4.90;99.90;;;4.84;70.59;95506.34;5024547;28;20468;-59
2022/11/28 01:17:10;;;;;;;5.80;5.00;;;4.90;99.90;;;4.87;70.18;95518.38;5024605;28;20453;-56
2022/11/28 01:19:38;;;;;;;5.73;5.10;;;5.00;99.90;;;4.86;69.68;95516.69;5023692;28;20546;-55
2022/11/28 01:22:06;;;;;;;7.23;5.50;;;4.90;99.90;;;4.85;70.57;95515.84;5024917;28;20452;-54
2022/11/28 01:24:33;;;;;;;5.27;4.77;;;4.90;99.90;;;4.88;70.55;95520.06;5024882;28;20562;-56
2022/11/28 01:27:01;;;;;;;6.37;5.37;;;4.90;99.90;;;4.88;70.31;95513.97;5025417;28;20452;-55
2022/11/28 01:29:28;;;;;;;7.07;5.97;;;4.90;99.90;;;4.89;70.37;95510.47;5024602;28;21012;-57
2022/11/28 01:31:56;;;;;;;7.77;6.97;;;5.00;99.90;;;4.91;70.38;95509.44;5024461;28;20464;-54
2022/11/28 01:34:23;;;;;;;10.20;8.60;;;5.00;99.90;;;4.89;70.42;95511.28;5024937;28;20508;-54
2022/11/28 01:36:50;;;;;;;9.97;8.80;;;5.00;99.90;;;4.89;69.88;95502.63;5020858;28;20484;-57
2022/11/28 01:39:19;;;;;;;13.67;9.00;;;5.00;99.90;;;4.85;70.49;95499.38;5021638;28;20843;-56
2022/11/28 01:41:46;;;;;;;12.20;10.70;;;4.90;99.90;;;4.82;70.21;95496.97;5024891;28;20464;-54
2022/11/28 01:45:07;;;;;;;14.90;11.37;;;4.90;99.90;;;4.82;70.56;95497.78;5027877;28;21035;-55
2022/11/28 01:47:34;;;;;;;12.33;10.60;;;4.90;99.90;;;4.85;70.70;95500.22;5026826;28;20456;-53
2022/11/28 01:50:02;;;;;;;15.80;9.70;;;4.90;99.90;;;4.87;70.49;95488.88;5027555;28;20465;-55
2022/11/28 01:52:29;;;;;;;14.33;9.80;;;4.90;99.90;;;4.85;70.36;95487.19;5027489;28;20453;-56
2022/11/28 01:54:59;;;;;;;11.77;9.23;;;4.90;99.90;;;4.85;70.65;95496.78;5027737;28;20530;-53
2022/11/28 01:57:28;;;;;;;10.17;8.20;;;5.00;99.90;;;4.86;69.48;95498.44;5023840;28;20448;-56
2022/11/28 01:59:59;;;;;;;12.60;8.10;;;5.00;99.90;;;4.84;70.26;95492.47;5027472;28;20473;-56
2022/11/28 02:02:32;;;;;;;10.47;7.83;;;4.90;99.90;;;4.84;70.89;95495.09;5027710;28;20534;-55
2022/11/28 02:04:59;;;;;;;8.63;6.83;;;4.90;99.90;;;4.86;70.31;95490.63;5026806;28;20496;-54
2022/11/28 02:07:27;;;;;;;8.23;7.37;;;4.90;99.90;;;4.87;70.37;95492.31;5027487;28;20567;-55
2022/11/28 02:09:54;;;;;;;9.97;7.20;;;5.00;99.90;;;4.86;70.43;95485.41;5027180;28;20480;-55
2022/11/28 02:12:36;;;;;;;6.77;6.17;;;5.00;99.90;;;4.80;69.95;95481.41;5027473;28;20551;-56
2022/11/28 02:15:22;;;;;;;8.53;6.37;;;4.90;99.90;;;4.78;70.32;95488.47;5023550;28;20993;-56
2022/11/28 02:18:01;;;;;;;7.17;6.47;;;4.90;99.90;;;4.76;70.29;95481.69;5027003;28;20445;-55
2022/11/28 02:20:55;;;;;;;8.80;6.00;;;4.80;99.90;;;4.76;70.40;95474.69;5024107;28;20491;-56
2022/11/28 02:23:25;;;;;;;9.00;5.93;;;4.80;99.90;;;4.73;70.24;95474.88;5023682;28;20445;-56
2022/11/28 02:26:36;;;;;;;7.10;6.43;;;4.80;99.90;;;4.76;70.64;95481.69;5025047;28;20487;-55
2022/11/28 02:29:26;;;;;;;7.83;6.30;;;4.90;99.90;;;4.76;70.39;95479.91;5025900;28;20476;-55
2022/11/28 02:32:18;;;;;;;7.90;6.80;;;4.90;99.90;;;4.74;70.22;95486.97;5025472;28;20452;-55
2022/11/28 02:34:51;;;;;;;10.57;7.43;;;4.90;99.90;;;4.67;70.58;95481.25;5024713;28;20473;-55
2022/11/28 02:37:25;;;;;;;11.50;8.00;;;4.80;99.90;;;4.71;69.86;95483.69;5026843;28;20518;-56
2022/11/28 02:40:00;;;;;;;6.60;5.57;;;4.80;99.90;;;4.67;70.52;95483.88;5027715;28;20479;-55
2022/11/28 02:42:32;;;;;;;8.47;6.60;;;4.80;99.90;;;4.64;70.36;95478.00;5027261;28;20453;-55
2022/11/28 02:45:03;;;;;;;6.40;5.77;;;4.80;99.90;;;4.62;70.35;95475.50;5023612;28;20541;-57
2022/11/28 02:47:33;;;;;;;5.77;5.23;;;4.80;99.90;;;4.59;70.31;95482.66;5026322;28;20872;-57
2022/11/28 02:50:06;;;;;;;6.03;5.00;;;4.80;99.90;;;4.57;70.62;95482.75;5025824;28;20473;-55
2022/11/28 02:52:36;;;;;;;5.43;4.97;;;4.70;99.90;;;4.58;70.59;95483.56;5026681;28;20456;-55
2022/11/28 02:55:03;;;;;;;6.97;6.00;;;4.70;99.90;;;4.59;70.54;95478.28;5026698;28;20484;-55
2022/11/28 02:57:36;;;;;;;7.07;6.37;;;4.80;99.90;;;4.59;70.52;95482.66;5026845;28;20457;-54
2022/11/28 03:00:19;;;;;;;5.97;5.47;;;4.70;99.90;;;4.60;70.84;95474.75;5026719;28;20472;-55
2022/11/28 03:02:47;;;;;;;7.47;5.77;;;4.80;99.90;;;4.62;71.04;95480.69;5024203;28;21078;-58
2022/11/28 03:05:19;;;;;;;8.83;6.43;;;4.80;99.90;;;4.67;71.03;95485.66;5026703;28;20526;-55
2022/11/28 03:07:57;;;;;;;10.53;7.60;;;4.80;99.90;;;4.71;70.84;95487.16;5026909;28;20441;-56
2022/11/28 03:10:29;;;;;;;7.57;6.43;;;4.80;99.90;;;4.74;71.31;95486.97;5023286;28;21000;-53
2022/11/28 03:13:02;;;;;;;8.87;7.43;;;4.90;99.90;;;4.78;71.34;95487.63;5026457;28;20861;-56
2022/11/28 03:15:34;;;;;;;6.80;6.10;;;4.90;99.90;;;4.81;70.85;95487.44;5025983;28;21076;-55
2022/11/28 03:18:09;;;;;;;7.47;6.67;;;4.90;99.90;;;4.85;70.66;95483.75;5026166;28;20460;-55
2022/11/28 03:20:41;;;;;;;7.60;6.70;;;5.00;99.90;;;4.84;70.14;95482.06;5026716;28;20514;-55
2022/11/28 03:23:14;;;;;;;7.13;6.13;;;5.00;99.90;;;4.80;70.27;95489.22;5026236;28;20843;-56
2022/11/28 03:25:50;;;;;;;6.63;5.77;;;5.00;99.90;;;4.76;70.22;95485.13;5026171;28;20492;-55
2022/11/28 03:28:21;;;;;;;7.93;6.40;;;4.90;99.90;;;4.72;70.62;95487.97;5026432;28;20459;-54
2022/11/28 03:30:50;;;;;;;7.13;5.30;;;4.90;99.90;;;4.71;70.41;95481.94;5025810;28;21071;-55
2022/11/28 03:33:20;;;;;;;7.90;5.60;;;4.90;99.90;;;4.66;70.10;95484.81;5025911;28;20464;-55
2022/11/28 03:35:49;;;;;;;5.70;5.10;;;4.80;99.90;;;4.63;70.13;95490.19;5026030;28;21018;-56
2022/11/28 03:38:20;;;;;;;5.63;5.13;;;4.80;99.90;;;4.58;70.33;95476.59;5022157;28;20836;-56
2022/11/28 03:40:49;;;;;;;7.43;5.67;;;4.80;99.90;;;4.53;69.87;95480.41;5024123;28;20480;-56
2022/11/28 03:43:19;;;;;;;6.93;5.60;;;4.70;99.90;;;4.51;70.24;95479.63;5026171;28;20506;-57
2022/11/28 03:45:47;;;;;;;5.53;5.03;;;4.70;99.90;;;4.46;71.03;95479.88;5022409;28;20581;-57
2022/11/28 03:48:18;;;;;;;9.27;5.73;;;4.60;99.90;;;4.46;70.71;95477.28;5025827;28;20452;-55
2022/11/28 03:50:49;;;;;;;6.57;4.60;;;4.60;99.90;;;4.44;70.74;95487.78;5025563;28;20477;-55
2022/11/28 03:53:19;;;;;;;5.27;4.77;;;4.60;99.90;;;4.42;70.93;95486.22;5025881;28;20445;-56
2022/11/28 03:55:50;;;;;;;5.07;4.57;;;4.60;99.90;;;4.40;70.68;95488.03;5025564;28;20477;-54
2022/11/28 03:58:22;;;;;;;4.70;4.13;;;4.60;99.90;;;4.37;70.91;95483.88;5025811;28;20803;-54
2022/11/28 04:00:52;;;;;;;3.30;3.10;;;4.60;99.90;;;4.35;70.78;95484.88;5021543;28;20477;-55
2022/11/28 04:03:24;;;;;;;4.10;3.80;;;4.60;99.90;;;4.34;70.59;95480.59;5024495;28;20563;-56
2022/11/28 04:05:55;;;;;;;3.77;3.50;;;4.50;99.90;;;4.31;70.96;95472.03;5025737;28;20594;-56
2022/11/28 04:08:25;;;;;;;7.90;3.33;;;4.50;99.90;;;4.30;71.04;95478.16;5025832;28;20862;-55
2022/11/28 04:10:55;;;;;;;5.63;3.90;;;4.50;99.90;;;4.30;71.20;95477.31;5025928;28;20514;-56
2022/11/28 04:13:25;;;;;;;8.97;3.70;;;4.50;99.90;;;4.26;71.32;95483.63;5025667;28;20456;-55
2022/11/28 04:15:55;;;;;;;3.20;3.00;;;4.40;99.90;;;4.23;71.40;95476.84;5025113;28;21038;-55
2022/11/28 04:18:26;;;;;;;3.40;3.20;;;4.40;99.90;;;4.23;71.42;95481.19;5025768;28;20538;-56
2022/11/28 04:20:58;;;;;;;2.80;2.60;;;4.40;99.90;;;4.24;71.19;95486.31;5022227;28;20437;-56
2022/11/28 04:23:25;;;;;;;4.07;3.73;;;4.40;99.90;;;4.25;71.53;95479.34;5025573;28;20548;-55
2022/11/28 04:25:55;;;;;;;3.73;3.30;;;4.40;99.90;;;4.26;71.66;95476.66;5024867;28;20566;-56
2022/11/28 04:28:24;;;;;;;3.37;2.63;;;4.40;99.90;;;4.27;71.92;95485.31;5025492;28;20460;-56
2022/11/28 04:30:52;;;;;;;2.90;2.60;;;4.50;99.90;;;4.28;71.59;95485.22;5025111;28;20494;-56
2022/11/28 04:33:21;;;;;;;4.40;4.00;;;4.50;99.90;;;4.30;71.62;95482.53;5025217;28;20464;-56
2022/11/28 04:35:50;;;;;;;3.47;3.13;;;4.50;99.90;;;4.29;71.63;95486.91;5024828;28;20468;-55
2022/11/28 04:38:19;;;;;;;9.57;5.03;;;4.50;99.90;;;4.29;71.25;95491.25;5025051;28;20515;-55
2022/11/28 04:40:50;;;;;;;3.67;3.37;;;4.50;99.90;;;4.30;71.21;95498.97;5024714;28;20487;-55
2022/11/28 04:43:20;;;;;;;13.40;9.80;;;4.50;99.90;;;4.31;71.36;95500.66;5025152;28;20444;-58
2022/11/28 04:45:50;;;;;;;3.03;2.73;;;4.50;99.90;;;4.31;71.48;95492.03;5025738;28;20492;-54
2022/11/28 04:48:18;;;;;;;4.70;2.83;;;4.50;99.90;;;4.33;71.17;95502.38;5021931;28;20479;-56
2022/11/28 04:50:50;;;;;;;2.70;2.50;;;4.50;99.90;;;4.31;71.80;95499.84;5025033;28;20483;-56
2022/11/28 04:53:22;;;;;;;2.60;2.50;;;4.50;99.90;;;4.33;71.45;95503.19;5025250;28;20456;-55
2022/11/28 04:55:52;;;;;;;4.47;3.80;;;4.50;99.90;;;4.36;71.42;95508.22;5024930;28;21567;-55
2022/11/28 04:58:22;;;;;;;3.50;3.27;;;4.50;99.90;;;4.41;71.54;95500.16;5025567;28;20449;-55
2022/11/28 05:00:51;;;;;;;3.90;2.80;;;4.50;99.90;;;4.43;71.45;95499.16;5024690;28;20464;-55
2022/11/28 05:03:18;;;;;;;3.90;3.50;;;4.60;99.90;;;4.45;71.49;95501.66;5022918;28;20534;-56
2022/11/28 05:05:47;;;;;;;3.03;2.83;;;4.60;99.90;;;4.44;71.34;95499.97;5024541;28;20496;-56
2022/11/28 05:08:14;;;;;;;3.17;2.87;;;4.60;99.90;;;4.44;71.20;95505.19;5025131;28;21094;-56
2022/11/28 05:10:43;;;;;;;3.60;3.30;;;4.60;99.90;;;4.43;71.18;95498.28;5022390;28;20531;-54
2022/11/28 05:13:11;;;;;;;3.00;2.80;;;4.60;99.90;;;4.44;71.28;95499.97;5025668;28;20833;-56
2022/11/28 05:15:38;;;;;;;2.70;2.50;;;4.60;99.90;;;4.43;71.14;95498.28;5027824;28;20640;-56
2022/11/28 05:18:06;;;;;;;3.33;3.07;;;4.60;99.90;;;4.45;71.11;95501.66;5027054;28;20456;-56
2022/11/28 05:20:33;;;;;;;3.87;3.17;;;4.60;99.90;;;4.44;71.12;95505.19;5028487;28;20476;-56
2022/11/28 05:23:00;;;;;;;3.33;3.10;;;4.60;99.90;;;4.45;71.17;95499.06;5024490;28;20449;-53
2022/11/28 05:25:28;;;;;;;4.00;2.93;;;4.60;99.90;;;4.45;71.29;95493.84;5027167;28;20835;-54
2022/11/28 05:27:56;;;;;;;2.90;2.70;;;4.60;99.90;;;4.45;71.24;95499.91;5022129;28;20448;-55
2022/11/28 05:30:24;;;;;;;2.97;2.77;;;4.60;99.90;;;4.45;71.49;95499.91;5023144;28;20487;-54
2022/11/28 05:32:51;;;;;;;4.07;2.90;;;4.60;99.90;;;4.46;71.24;95495.50;5026347;28;20472;-55
2022/11/28 05:35:18;;;;;;;2.90;2.70;;;4.60;99.90;;;4.46;71.26;95500.72;5027899;28;20495;-54
2022/11/28 05:37:46;;;;;;;2.70;2.50;;;4.60;99.90;;;4.45;71.27;95496.47;5027673;28;20575;-55
2022/11/28 05:40:13;;;;;;;3.80;3.27;;;4.60;99.90;;;4.44;71.32;95499.97;5026067;28;20565;-56
2022/11/28 05:42:41;;;;;;;3.00;2.80;;;4.60;99.90;;;4.43;71.08;95495.69;5026822;28;20468;-55
2022/11/28 05:45:10;;;;;;;2.93;2.73;;;4.60;99.90;;;4.43;71.25;95495.69;5023967;28;20492;-56
2022/11/28 05:47:38;;;;;;;3.13;2.77;;;4.60;99.90;;;4.42;71.42;95492.25;5023903;28;20451;-55
2022/11/28 05:50:07;;;;;;;4.30;2.67;;;4.60;99.90;;;4.43;71.58;95487.88;5026022;28;20563;-58
2022/11/28 05:52:35;;;;;;;3.20;3.00;;;4.60;99.90;;;4.44;71.39;95489.56;5027807;28;20453;-55
2022/11/28 05:55:02;;;;;;;4.30;3.27;;;4.60;99.90;;;4.43;71.37;95491.34;5027849;28;21142;-55
2022/11/28 05:57:30;;;;;;;3.30;3.10;;;4.60;99.90;;;4.45;71.47;95491.25;5025766;28;20456;-53
2022/11/28 05:59:58;;;;;;;3.63;3.40;;;4.60;99.90;;;4.46;71.73;95493.78;5026033;28;20471;-55
2022/11/28 06:02:27;;;;;;;5.70;3.23;;;4.60;99.90;;;4.46;71.24;95493.78;5026098;28;20474;-56
2022/11/28 06:04:54;;;;;;;3.53;3.20;;;4.60;99.90;;;4.47;71.11;95495.44;5026677;28;20489;-56
2022/11/28 06:07:21;;;;;;;4.30;4.00;;;4.60;99.90;;;4.48;71.28;95483.25;5026777;28;20455;-57
2022/11/28 06:09:49;;;;;;;4.37;3.63;;;4.60;99.90;;;4.48;71.51;95489.31;5026664;28;20501;-56
2022/11/28 06:12:16;;;;;;;3.03;2.83;;;4.70;99.90;;;4.48;71.47;95485.88;5026597;28;20785;-56
2022/11/28 06:14:43;;;;;;;3.80;3.50;;;4.60;99.90;;;4.49;71.55;95487.53;5027745;28;20564;-55
2022/11/28 06:17:11;;;;;;;3.40;3.10;;;4.70;99.90;;;4.50;71.61;95486.59;5027678;28;20463;-55
2022/11/28 06:19:39;;;;;;;3.00;2.80;;;4.70;99.90;;;4.51;71.52;95490.03;5028097;28;20530;-56
2022/11/28 06:22:07;;;;;;;3.60;3.40;;;4.70;99.90;;;4.52;71.41;95492.56;5027753;28;20535;-56
2022/11/28 06:24:34;;;;;;;4.40;3.60;;;4.70;99.90;;;4.54;72.11;95495.06;5025691;28;20484;-56
2022/11/28 06:27:01;;;;;;;7.40;4.10;;;4.70;99.90;;;4.55;71.31;95489.78;5026647;28;20492;-55
2022/11/28 06:29:29;;;;;;;12.10;5.20;;;4.70;99.90;;;4.56;71.37;95486.25;5027177;28;20472;-57
2022/11/28 06:31:56;;;;;;;25.90;4.57;;;4.70;99.90;;;4.57;71.26;95485.34;5027099;28;20523;-56
2022/11/28 06:34:23;;;;;;;5.60;4.20;;;4.70;99.90;;;4.57;71.49;95487.09;5027209;28;20468;-55
2022/11/28 06:36:52;;;;;;;6.87;4.90;;;4.70;99.90;;;4.57;71.47;95487.09;5027382;28;20826;-57
2022/11/28 06:39:19;;;;;;;5.40;4.70;;;4.70;99.90;;;4.59;71.38;95486.09;5027278;28;20469;-56
2022/11/28 06:41:46;;;;;;;6.17;4.40;;;4.70;99.90;;;4.58;71.65;95487.00;5026603;28;20468;-54
2022/11/28 06:44:14;;;;;;;5.87;5.33;;;4.70;99.90;;;4.61;71.73;95483.38;5027152;28;20473;-55
2022/11/28 06:46:42;;;;;;;7.10;5.93;;;4.70;99.90;;;4.65;71.85;95488.34;5027042;28;20863;-57
2022/11/28 06:49:10;;;;;;;8.30;6.10;;;4.80;99.90;;;4.69;72.88;95475.97;5026628;28;20476;-58
2022/11/28 06:51:38;;;;;;;10.50;6.10;;;4.80;99.90;;;4.76;72.32;95471.25;5023083;28;21292;-56
2022/11/28 06:54:07;;;;;;;11.37;6.80;;;4.90;99.90;;;4.85;74.70;95479.38;5024441;28;20543;-57
2022/11/28 06:56:34;;;;;;;10.97;6.33;;;4.90;99.90;;;4.96;74.14;95476.13;5023539;28;20449;-55
2022/11/28 06:59:01;;;;;;;16.07;9.93;;;5.00;99.90;;;5.08;73.40;95478.91;5026289;28;20479;-55
2022/11/28 07:01:30;;;;;;;28.00;14.23;;;5.10;99.90;;;5.13;71.67;95482.13;5026774;28;20580;-56
2022/11/28 07:03:58;;;;;;;30.77;15.90;;;5.20;99.90;;;5.15;71.47;95481.06;5026023;28;20469;-55
2022/11/28 07:06:26;;;;;;;22.70;13.83;;;5.20;99.90;;;5.16;71.18;95476.72;5026607;28;20480;-58
2022/11/28 07:08:53;;;;;;;16.80;11.17;;;5.20;99.90;;;5.18;71.17;95477.47;5026148;28;21075;-57
2022/11/28 07:11:23;;;;;;;16.87;10.33;;;5.20;99.90;;;5.18;71.10;95487.88;5026781;28;20457;-55
2022/11/28 07:13:51;;;;;;;11.10;8.00;;;5.30;99.90;;;5.21;70.89;95482.50;5023986;28;20477;-57
2022/11/28 07:16:20;;;;;;;12.07;8.80;;;5.30;99.90;;;5.24;70.84;95481.47;5026578;28;20460;-56
2022/11/28 07:18:47;;;;;;;12.20;7.67;;;5.30;99.90;;;5.27;70.98;95489.94;5026607;28;20477;-57
2022/11/28 07:21:15;;;;;;;9.40;7.70;;;5.40;99.90;;;5.30;70.69;95483.69;5026623;28;20460;-59
2022/11/28 07:23:42;;;;;;;9.03;8.13;;;5.40;99.90;;;5.33;70.46;95486.09;5027128;28;20502;-57
2022/11/28 07:26:11;;;;;;;10.57;7.73;;;5.40;99.90;;;5.32;70.10;95480.06;5026425;28;20546;-56
2022/11/28 07:28:40;;;;;;;14.93;7.77;;;5.40;99.90;;;5.30;70.23;95478.47;5026458;28;21409;-56
2022/11/28 07:31:09;;;;;;;12.80;8.13;;;5.40;99.90;;;5.32;69.85;95480.06;5026012;28;20457;-55
2022/11/28 07:33:37;;;;;;;10.90;8.20;;;5.40;99.90;;;5.32;69.57;95485.28;5025624;28;20840;-56
2022/11/28 07:36:05;;;;;;;13.70;9.57;;;5.40;99.90;;;5.31;69.79;95473.16;5026242;28;20514;-55
2022/11/28 07:38:32;;;;;;;15.73;8.70;;;5.40;99.90;;;5.33;69.97;95475.69;5026448;28;21018;-56
2022/11/28 07:41:04;;;;;;;9.83;6.87;;;5.40;99.90;;;5.37;69.70;95472.78;5026152;28;20476;-56
2022/11/28 07:43:31;;;;;;;8.40;6.17;;;5.40;99.90;;;5.42;69.70;95475.13;5022439;28;20530;-55
2022/11/28 07:46:00;;;;;;;14.70;7.50;;;5.40;99.90;;;5.44;69.29;95473.28;5024697;28;20542;-55
2022/11/28 07:48:27;;;;;;;7.60;6.40;;;5.50;99.90;;;5.48;69.72;95481.75;5022446;28;20921;-56
2022/11/28 07:50:54;;;;;;;13.67;7.17;;;5.50;99.90;;;5.57;69.84;95483.78;5025411;28;20452;-57
2022/11/28 07:53:22;;;;;;;11.40;6.80;;;5.60;99.90;;;5.65;69.58;95473.72;5026352;28;20449;-55
2022/11/28 07:55:49;;;;;;;9.20;7.17;;;5.70;99.90;;;5.78;69.52;95480.78;5026025;28;21499;-55
2022/11/28 07:58:16;;;;;;;9.60;7.57;;;5.80;99.90;;;5.83;68.49;95465.69;5026419;28;20476;-55
2022/11/28 08:00:44;;;;;;;15.60;8.10;;;5.90;99.90;;;5.89;69.18;95471.34;5026003;28;21062;-55
2022/11/28 08:03:12;;;;;;;12.00;7.87;;;5.90;99.90;;;5.95;68.71;95475.38;5025825;28;20445;-55
2022/11/28 08:05:41;;;;;;;7.37;6.30;;;6.00;99.90;;;5.98;68.00;95472.59;5022457;28;20484;-56
2022/11/28 08:08:08;;;;;;;9.93;7.77;;;6.00;99.90;;;5.98;68.09;95462.16;5025571;28;20547;-56
2022/11/28 08:10:35;;;;;;;9.80;6.60;;;6.00;99.90;;;5.98;67.77;95472.59;5025452;28;20514;-54
2022/11/28 08:13:03;;;;;;;11.10;6.23;;;6.00;99.90;;;5.99;67.33;95465.59;5025607;28;20511;-56
2022/11/28 08:15:31;;;;;;;6.83;6.07;;;6.00;99.90;;;6.05;67.11;95470.41;5025272;28;20488;-54
2022/11/28 08:17:58;;;;;;;7.30;6.37;;;6.00;99.90;;;6.13;67.32;95462.09;5025280;28;20559;-56
2022/11/28 08:20:27;;;;;;;8.90;6.20;;;6.10;99.90;;;6.19;66.71;95465.13;5025344;28;20551;-57
2022/11/28 08:22:54;;;;;;;9.63;6.33;;;6.20;99.90;;;6.20;67.32;95459.00;5025443;28;20539;-57
2022/11/28 08:25:21;;;;;;;8.40;6.70;;;6.30;99.90;;;6.19;66.98;95469.53;5025094;28;20476;-55
2022/11/28 08:27:49;;;;;;;9.80;8.63;;;6.20;99.90;;;6.16;66.83;95464.50;5025706;28;20579;-56
2022/11/28 08:30:16;;;;;;;9.97;7.67;;;6.20;99.90;;;6.13;66.97;95467.31;5025388;28;20476;-55
2022/11/28 08:32:44;;;;;;;24.47;6.70;;;6.20;99.90;;;6.10;66.61;95463.97;5024515;28;21117;-55
2022/11/28 08:35:11;;;;;;;8.07;6.57;;;6.20;99.90;;;6.06;66.46;95457.25;5025139;28;21001;-56
2022/11/28 08:37:40;;;;;;;9.40;7.13;;;6.10;99.90;;;6.02;66.97;95454.94;5025168;28;20457;-56
2022/11/28 08:40:08;;;;;;;7.00;6.30;;;6.10;99.90;;;6.02;67.01;95461.00;5024861;28;20586;-56
2022/11/28 08:42:36;;;;;;;8.23;5.87;;;6.10;99.90;;;6.08;67.16;95452.78;5025338;28;20452;-57
2022/11/28 08:45:04;;;;;;;12.43;6.97;;;6.10;99.90;;;6.12;66.91;95448.22;5025392;28;20526;-54
2022/11/28 08:47:32;;;;;;;10.53;7.57;;;6.10;99.90;;;6.21;66.92;95452.00;5025237;28;21003;-56
2022/11/28 08:49:59;;;;;;;12.10;7.30;;;6.30;99.90;;;6.30;66.88;95454.00;5029406;28;20494;-55
2022/11/28 08:52:26;;;;;;;10.40;7.90;;;6.30;99.90;;;6.42;67.28;95447.97;5029935;28;20452;-56
2022/11/28 08:54:55;;;;;;;14.07;7.53;;;6.40;99.90;;;6.54;67.18;95442.91;5029623;28;20498;-56
2022/11/28 08:57:22;;;;;;;9.33;7.67;;;6.60;99.90;;;6.64;66.41;95438.72;5028855;28;20531;-56
2022/11/28 08:59:50;;;;;;;14.97;6.37;;;6.70;99.90;;;6.71;66.10;95433.94;5029469;28;20484;-55
2022/11/28 09:02:17;;;;;;;6.13;5.47;;;6.70;99.90;;;6.73;65.74;95429.44;5029298;28;20460;-56
2022/11/28 09:04:44;;;;;;;9.30;5.30;;;6.80;99.90;;;6.67;65.58;95425.47;5029244;28;20481;-57
2022/11/28 09:07:12;;;;;;;7.50;5.40;;;6.70;99.90;;;6.61;65.41;95420.63;5029217;28;20911;-56
2022/11/28 09:09:39;;;;;;;7.00;5.90;;;6.70;99.90;;;6.57;65.76;95427.84;5028702;28;20472;-57
2022/11/28 09:12:08;;;;;;;6.33;5.47;;;6.60;99.90;;;6.55;65.68;95415.81;5028015;28;20819;-55
2022/11/28 09:14:35;;;;;;;8.43;5.43;;;6.60;99.90;;;6.48;64.96;95417.19;5025148;28;20475;-57
2022/11/28 09:17:03;;;;;;;12.93;7.17;;;6.60;99.90;;;6.43;65.46;95415.69;5028404;28;21052;-56
2022/11/28 09:19:30;;;;;;;7.67;6.00;;;6.50;99.90;;;6.44;65.86;95408.69;5029212;28;20477;-56
2022/11/28 09:21:57;;;;;;;10.77;5.17;;;6.50;99.90;;;6.42;65.42;95408.78;5029009;28;20854;-55
2022/11/28 09:24:25;;;;;;;7.57;5.83;;;6.50;99.90;;;6.40;65.47;95409.84;5029202;28;20472;-57
2022/11/28 09:26:52;;;;;;;6.73;6.03;;;6.50;99.90;;;6.37;65.48;95403.03;5025249;28;20577;-55
2022/11/28 09:29:21;;;;;;;7.83;5.87;;;6.50;99.90;;;6.36;65.80;95401.34;5028828;28;20472;-56
2022/11/28 09:31:48;;;;;;;6.50;5.43;;;6.40;99.90;;;6.34;65.65;95405.84;5025477;28;20452;-56
2022/11/28 09:34:15;;;;;;;7.20;4.90;;;6.40;99.90;;;6.31;65.37;95398.22;5027825;28;20468;-55
2022/11/28 09:36:43;;;;;;;7.40;6.57;;;6.40;99.90;;;6.28;65.20;95385.34;5028847;28;20463;-56
2022/11/28 09:39:10;;;;;;;9.20;5.70;;;6.40;99.90;;;6.34;65.28;95382.34;5028008;28;20472;-55
2022/11/28 09:41:56;;;;;;;7.67;5.80;;;6.40;99.90;;;6.45;64.96;95374.63;5028049;28;20452;-54
2022/11/28 09:44:26;;;;;;;11.40;6.63;;;6.50;99.90;;;6.59;65.33;95380.72;5028459;28;20476;-55
2022/11/28 09:46:57;;;;;;;9.40;6.00;;;6.60;99.90;;;6.84;64.52;95374.66;5024290;28;21106;-55
2022/11/28 09:49:33;;;;;;;7.33;5.23;;;6.80;99.90;;;7.20;64.28;95370.44;5028206;28;20489;-56
2022/11/28 09:52:05;;;;;;;4.73;4.30;;;7.10;99.90;;;7.55;63.99;95364.53;5028140;28;20926;-55
2022/11/28 09:54:40;;;;;;;4.70;4.27;;;7.40;99.90;;;8.01;63.09;95360.34;5028037;28;20480;-57
2022/11/28 09:57:13;;;;;;;6.07;4.03;;;7.80;99.70;;;8.52;61.68;95357.50;5028041;28;20448;-56
2022/11/28 09:59:42;;;;;;;8.00;4.30;;;8.20;99.40;;;9.00;60.49;95374.03;5025049;28;20491;-54
2022/11/28 10:02:21;;;;;;;3.87;3.57;;;8.70;98.30;;;9.25;58.66;95368.56;5027578;28;20449;-56
2022/11/28 10:04:54;;;;;;;3.37;3.17;;;9.00;97.00;;;9.48;58.53;95361.50;5027186;28;20545;-56
2022/11/28 10:07:27;;;;;;;3.60;3.00;;;9.20;96.30;;;9.84;58.22;95359.53;5027165;28;20476;-55
2022/11/28 10:09:59;;;;;;;4.20;3.80;;;9.50;96.10;;;10.33;56.84;95353.91;5023845;28;20564;-55
2022/11/28 10:12:35;;;;;;;4.50;3.83;;;10.00;94.90;;;10.94;55.85;95347.94;5028119;28;20444;-56
2022/11/28 10:15:15;;;;;;;3.73;3.43;;;10.50;94.20;;;11.56;54.24;95342.69;5027525;28;20503;-55
2022/11/28 10:17:48;;;;;;;3.70;3.30;;;11.10;93.00;;;12.20;51.76;95336.97;5023381;28;20522;-56
2022/11/28 10:20:19;;;;;;;5.57;3.97;;;11.70;91.00;;;12.79;52.20;95338.75;5024528;28;21156;-54
2022/11/28 10:22:48;;;;;;;3.30;2.97;;;12.20;91.40;;;13.26;50.51;95338.75;5027741;28;20448;-56
2022/11/28 10:25:18;;;;;;;2.97;2.80;;;12.70;88.40;;;13.17;50.45;95334.34;5027189;28;21069;-55
2022/11/28 10:27:46;;;;;;;3.30;3.10;;;12.80;87.20;;;12.72;49.50;95333.22;5027244;28;20492;-56
2022/11/28 10:30:21;;;;;;;2.63;2.50;;;12.70;82.80;;;12.12;49.89;95320.19;5027666;28;20488;-56
2022/11/28 10:32:57;;;;;;;3.70;3.40;;;12.30;82.20;;;11.54;51.38;95324.38;5025988;28;20631;-55
2022/11/28 10:35:30;;;;;;;3.90;3.27;;;11.80;83.40;;;11.15;52.65;95324.22;5024135;28;20480;-56
2022/11/28 10:37:58;;;;;;;4.20;3.90;;;11.40;85.40;;;11.28;52.68;95321.38;5026391;28;20449;-54
2022/11/28 10:40:32;;;;;;;4.50;4.10;;;11.30;86.70;;;11.87;52.29;95321.50;5026685;28;20468;-56